Time;durP1;ratioP1;P1;durP2;ratioP2;P2;SDS_P1;SDS_P2;PMS_P1;PMS_P2;Temp;Humidity;BMP_temperature;BMP_pressure;BME280_temperature;BME280_humidity;BME280_pressure;Samples;Min_cycle;Max_cycle;Signal;HPM_P1;HPM_P2
2023/03/15 00:01:02;;;;;;;11.00;1.52;;;5.80;93.40;;;;;;5009368;28;20116;-71
2023/03/15 00:03:28;;;;;;;8.00;0.90;;;5.80;93.30;;;;;;5010413;28;20026;-71
2023/03/15 00:05:54;;;;;;;12.52;1.63;;;5.90;93.30;;;;;;5012007;28;20021;-72
2023/03/15 00:08:20;;;;;;;8.95;1.63;;;5.90;93.40;;;;;;5014261;28;20345;-72
2023/03/15 00:10:47;;;;;;;10.63;1.40;;;5.90;93.40;;;;;;5014344;28;20570;-72
2023/03/15 00:13:14;;;;;;;14.90;1.90;;;5.80;93.40;;;;;;5014060;28;20091;-71
2023/03/15 00:15:52;;;;;;;7.00;1.17;;;5.80;93.40;;;;;;5014144;28;20388;-71
2023/03/15 00:18:19;;;;;;;13.60;1.10;;;5.80;93.20;;;;;;5013172;28;20121;-72
2023/03/15 00:20:46;;;;;;;16.23;1.55;;;5.70;93.10;;;;;;5014327;28;20029;-71
2023/03/15 00:23:12;;;;;;;11.00;1.25;;;5.80;93.20;;;;;;5013908;28;20034;-72
2023/03/15 00:25:37;;;;;;;10.13;1.35;;;5.70;92.90;;;;;;5013585;28;20120;-71
2023/03/15 00:28:04;;;;;;;8.95;1.48;;;5.80;92.90;;;;;;5012559;28;20473;-70
2023/03/15 00:30:29;;;;;;;17.75;1.77;;;5.80;92.70;;;;;;5013299;28;20053;-72
2023/03/15 00:32:55;;;;;;;9.55;1.73;;;5.80;92.70;;;;;;5014084;28;20127;-71
2023/03/15 00:35:22;;;;;;;8.93;1.52;;;5.80;92.70;;;;;;5012456;28;20072;-71
2023/03/15 00:37:53;;;;;;;11.52;1.60;;;5.80;92.60;;;;;;5013671;28;20022;-71
2023/03/15 00:40:19;;;;;;;4.82;1.33;;;5.70;92.50;;;;;;5013199;28;20480;-70
2023/03/15 00:42:49;;;;;;;7.95;1.05;;;5.70;92.40;;;;;;5013206;28;20065;-70
2023/03/15 00:45:19;;;;;;;10.32;1.50;;;5.70;92.30;;;;;;5013342;28;20056;-71
2023/03/15 00:47:48;;;;;;;8.43;1.35;;;5.80;92.30;;;;;;5013684;28;20056;-70
2023/03/15 00:50:14;;;;;;;9.15;2.00;;;5.70;92.20;;;;;;5012072;28;20449;-71
2023/03/15 00:52:41;;;;;;;12.35;2.13;;;5.80;92.10;;;;;;5013101;28;20026;-72
2023/03/15 00:55:14;;;;;;;7.07;1.25;;;5.70;92.10;;;;;;5011990;28;20025;-70
2023/03/15 00:57:44;;;;;;;8.13;1.08;;;5.70;92.20;;;;;;5013102;28;20370;-72
2023/03/15 01:00:13;;;;;;;7.85;1.15;;;5.70;92.30;;;;;;5011786;28;20025;-71
2023/03/15 01:02:39;;;;;;;12.95;1.50;;;5.80;92.30;;;;;;5013340;28;20033;-70
2023/03/15 01:05:07;;;;;;;3.65;0.90;;;5.70;92.20;;;;;;5013441;28;20436;-71
2023/03/15 01:07:33;;;;;;;;;;;5.80;92.40;;;;;;5013726;28;20030;-72
2023/03/15 01:10:00;;;;;;;5.32;1.10;;;5.80;92.20;;;;;;5012852;28;20370;-72
2023/03/15 01:12:28;;;;;;;12.55;1.50;;;5.90;92.30;;;;;;5012842;28;20356;-72
2023/03/15 01:14:53;;;;;;;7.55;1.40;;;5.80;92.20;;;;;;5013371;28;20398;-71
2023/03/15 01:17:20;;;;;;;17.23;1.70;;;5.90;92.30;;;;;;5010841;28;20030;-72
2023/03/15 01:19:45;;;;;;;10.70;1.33;;;5.80;92.10;;;;;;5013021;28;20108;-71
2023/03/15 01:22:11;;;;;;;7.38;1.17;;;5.90;92.20;;;;;;5012809;28;20460;-71
2023/03/15 01:24:37;;;;;;;17.17;1.70;;;6.00;92.20;;;;;;5012464;28;20049;-72
2023/03/15 01:27:02;;;;;;;13.20;2.05;;;6.00;92.10;;;;;;5012273;28;20022;-71
2023/03/15 01:29:28;;;;;;;15.77;1.73;;;6.00;92.10;;;;;;5012781;28;20026;-72
2023/03/15 01:31:54;;;;;;;9.23;1.63;;;6.10;92.00;;;;;;5012433;28;20073;-72
2023/03/15 01:34:20;;;;;;;8.55;1.70;;;6.00;91.90;;;;;;5012362;28;20467;-71
2023/03/15 01:36:51;;;;;;;9.25;1.52;;;6.10;92.10;;;;;;5012463;28;20483;-70
2023/03/15 01:39:18;;;;;;;13.77;1.25;;;6.00;92.20;;;;;;5012629;28;20070;-73
2023/03/15 01:41:43;;;;;;;13.35;1.65;;;6.00;92.00;;;;;;5012773;28;20087;-72
2023/03/15 01:44:17;;;;;;;7.88;1.27;;;5.90;91.90;;;;;;5012564;28;20026;-72
2023/03/15 01:46:43;;;;;;;14.20;3.13;;;5.90;92.00;;;;;;5012300;28;20041;-73
2023/03/15 01:49:15;;;;;;;14.52;1.40;;;6.00;91.90;;;;;;5011166;28;20022;-72
2023/03/15 01:51:52;;;;;;;9.50;1.63;;;6.10;91.80;;;;;;5011087;28;20402;-73
2023/03/15 01:54:29;;;;;;;9.55;1.65;;;6.00;91.60;;;;;;5012086;28;20348;-73
2023/03/15 01:57:06;;;;;;;12.10;2.70;;;6.10;91.70;;;;;;5011447;28;20021;-72
2023/03/15 01:59:37;;;;;;;9.50;1.45;;;6.00;91.70;;;;;;5011907;28;20115;-72
2023/03/15 02:02:04;;;;;;;8.57;1.45;;;5.90;91.70;;;;;;5010948;28;20030;-72
2023/03/15 02:04:37;;;;;;;12.45;1.70;;;6.10;91.80;;;;;;5011986;28;20037;-72
2023/03/15 02:07:04;;;;;;;10.07;1.27;;;6.10;91.40;;;;;;5010860;28;20049;-73
2023/03/15 02:10:00;;;;;;;10.07;1.50;;;5.90;91.50;;;;;;5011888;28;20017;-72
2023/03/15 02:12:27;;;;;;;12.45;1.42;;;6.00;91.70;;;;;;5012171;28;20376;-72
2023/03/15 02:14:53;;;;;;;9.75;1.17;;;6.20;91.80;;;;;;5012408;28;20022;-73
2023/03/15 02:17:24;;;;;;;10.50;1.45;;;6.10;91.50;;;;;;5010865;28;20034;-74
2023/03/15 02:20:14;;;;;;;10.18;1.58;;;6.10;91.70;;;;;;5011516;28;20540;-73
2023/03/15 02:22:54;;;;;;;14.48;1.38;;;6.00;91.80;;;;;;5012091;28;20053;-72
2023/03/15 02:25:49;;;;;;;11.73;1.92;;;5.80;92.00;;;;;;5011540;28;20033;-73
2023/03/15 02:28:17;;;;;;;11.50;1.27;;;6.00;92.00;;;;;;5011285;28;20048;-73
2023/03/15 02:30:43;;;;;;;;;;;5.90;92.10;;;;;;5010834;28;20045;-73
2023/03/15 02:33:41;;;;;;;9.15;1.17;;;6.00;92.20;;;;;;5011562;28;19919;-72
2023/03/15 02:36:14;;;;;;;15.10;1.50;;;6.10;92.30;;;;;;5019337;28;20029;-73
2023/03/15 02:38:40;;;;;;;6.97;1.50;;;6.10;92.60;;;;;;5031605;28;20079;-72
2023/03/15 02:41:06;;;;;;;11.27;1.60;;;6.10;92.30;;;;;;5031091;28;20379;-72
2023/03/15 02:43:34;;;;;;;10.65;1.80;;;6.10;92.40;;;;;;5031271;28;20037;-71
2023/03/15 02:46:00;;;;;;;13.90;1.27;;;6.00;92.50;;;;;;5031144;28;20048;-71
2023/03/15 02:48:26;;;;;;;12.90;2.28;;;6.10;92.60;;;;;;5031052;28;20041;-72
2023/03/15 02:50:51;;;;;;;10.52;1.73;;;6.30;92.70;;;;;;5031516;28;20029;-73
2023/03/15 02:53:17;;;;;;;7.55;1.27;;;6.20;92.60;;;;;;5031272;28;20037;-72
2023/03/15 02:55:43;;;;;;;9.55;1.30;;;6.10;92.60;;;;;;5030974;28;20034;-71
2023/03/15 02:58:09;;;;;;;11.30;1.40;;;6.20;92.60;;;;;;5030815;28;20431;-73
2023/03/15 03:00:35;;;;;;;7.05;1.58;;;6.10;92.80;;;;;;5029833;28;20044;-72
2023/03/15 03:03:00;;;;;;;9.45;1.50;;;6.10;92.80;;;;;;5030612;28;20073;-72
2023/03/15 03:05:26;;;;;;;5.28;1.60;;;6.00;92.90;;;;;;5031160;28;20183;-76
2023/03/15 03:07:52;;;;;;;6.78;1.58;;;6.20;93.00;;;;;;5030666;28;20021;-73
2023/03/15 03:10:19;;;;;;;10.95;1.67;;;6.00;93.10;;;;;;5029467;28;20030;-73
2023/03/15 03:12:45;;;;;;;9.43;2.17;;;6.00;93.30;;;;;;5030786;28;20109;-74
2023/03/15 03:15:11;;;;;;;7.20;1.50;;;6.00;93.40;;;;;;5030679;28;20030;-72
2023/03/15 03:17:37;;;;;;;9.90;1.73;;;6.00;93.40;;;;;;5031168;28;20018;-73
2023/03/15 03:20:10;;;;;;;10.82;1.63;;;6.40;93.50;;;;;;5030965;28;20112;-73
2023/03/15 03:22:36;;;;;;;5.70;1.35;;;6.00;93.40;;;;;;5030880;28;20041;-73
2023/03/15 03:25:03;;;;;;;11.55;1.65;;;6.00;93.60;;;;;;5030388;28;20044;-72
2023/03/15 03:27:29;;;;;;;13.55;2.13;;;5.80;93.80;;;;;;5030630;28;20025;-72
2023/03/15 03:29:55;;;;;;;14.48;1.92;;;5.80;94.10;;;;;;5029546;28;20091;-71
2023/03/15 03:32:20;;;;;;;8.75;2.10;;;5.80;94.40;;;;;;5030318;28;20045;-71
2023/03/15 03:34:47;;;;;;;9.32;1.58;;;5.40;95.10;;;;;;5030559;28;20116;-71
2023/03/15 03:37:17;;;;;;;8.90;1.55;;;5.40;95.70;;;;;;5030335;28;20057;-72
2023/03/15 03:39:43;;;;;;;8.40;1.85;;;5.50;95.60;;;;;;5030203;28;20041;-72
2023/03/15 03:42:09;;;;;;;6.78;2.00;;;5.50;95.70;;;;;;5033693;28;20028;-71
2023/03/15 03:44:34;;;;;;;8.18;1.98;;;5.40;96.00;;;;;;5033790;28;20021;-71
2023/03/15 03:47:00;;;;;;;8.38;1.95;;;5.30;96.60;;;;;;5033357;28;20029;-73
2023/03/15 03:49:26;;;;;;;7.10;1.95;;;5.40;96.80;;;;;;5033368;28;20518;-73
2023/03/15 03:51:51;;;;;;;8.73;2.72;;;5.40;96.80;;;;;;5034299;28;20033;-72
2023/03/15 03:54:20;;;;;;;6.45;1.88;;;5.40;96.90;;;;;;5034530;28;20415;-72
2023/03/15 03:56:46;;;;;;;4.97;1.92;;;5.50;96.80;;;;;;5034644;28;20113;-72
2023/03/15 03:59:12;;;;;;;14.60;2.33;;;5.30;97.20;;;;;;5034412;28;20061;-72
2023/03/15 04:01:38;;;;;;;11.18;2.42;;;5.30;97.30;;;;;;5034375;28;20033;-72
2023/03/15 04:04:04;;;;;;;18.17;2.65;;;5.40;97.50;;;;;;5032919;28;20037;-73
2023/03/15 04:06:30;;;;;;;11.57;2.42;;;5.50;97.20;;;;;;5033992;28;20053;-73
2023/03/15 04:08:56;;;;;;;10.45;2.20;;;5.30;97.70;;;;;;5033298;28;20056;-72
2023/03/15 04:11:25;;;;;;;7.35;2.40;;;5.20;98.20;;;;;;5033935;28;20423;-72
2023/03/15 04:13:52;;;;;;;10.02;2.75;;;5.30;98.20;;;;;;5033599;28;20414;-71
2023/03/15 04:16:19;;;;;;;9.32;2.70;;;5.30;98.10;;;;;;5032889;28;20053;-73
2023/03/15 04:18:44;;;;;;;12.95;2.30;;;5.20;98.50;;;;;;5033642;28;20065;-72
2023/03/15 04:21:10;;;;;;;5.63;2.28;;;5.30;98.60;;;;;;5032740;28;20064;-72
2023/03/15 04:23:36;;;;;;;6.82;2.47;;;5.20;98.90;;;;;;5034336;28;20400;-71
2023/03/15 04:26:04;;;;;;;7.78;2.60;;;5.20;99.10;;;;;;5033595;28;20088;-72
2023/03/15 04:28:30;;;;;;;9.52;2.88;;;5.20;99.20;;;;;;5033755;28;20135;-71
2023/03/15 04:30:57;;;;;;;5.72;2.65;;;5.00;99.80;;;;;;5032355;28;20467;-72
2023/03/15 04:33:30;;;;;;;8.15;2.70;;;5.10;99.60;;;;;;5032528;28;20048;-72
2023/03/15 04:35:56;;;;;;;12.07;2.75;;;5.20;99.60;;;;;;5033860;28;20057;-73
2023/03/15 04:38:25;;;;;;;9.00;2.42;;;5.10;99.90;;;;;;5032290;28;20072;-72
2023/03/15 04:40:53;;;;;;;6.80;2.33;;;5.30;99.70;;;;;;5033351;28;20404;-73
2023/03/15 04:43:19;;;;;;;10.07;2.60;;;5.30;99.80;;;;;;5032156;28;20033;-73
2023/03/15 04:45:45;;;;;;;7.43;2.97;;;5.10;99.90;;;;;;5033309;28;20068;-72
2023/03/15 04:48:11;;;;;;;7.70;2.90;;;5.10;99.90;;;;;;5032933;28;20061;-72
2023/03/15 04:50:36;;;;;;;10.40;3.28;;;5.10;99.90;;;;;;5033476;28;20025;-72
2023/03/15 04:53:02;;;;;;;6.38;2.70;;;5.10;99.90;;;;;;5033007;28;20033;-73
2023/03/15 04:55:28;;;;;;;12.27;2.75;;;5.10;99.90;;;;;;5033097;28;20033;-72
2023/03/15 04:57:54;;;;;;;9.13;2.85;;;5.20;99.90;;;;;;5032998;28;20045;-72
2023/03/15 05:00:20;;;;;;;5.88;2.90;;;5.20;99.90;;;;;;5031716;28;20340;-73
2023/03/15 05:02:53;;;;;;;6.47;2.92;;;5.00;99.90;;;;;;5033952;28;20032;-72
2023/03/15 05:05:20;;;;;;;11.15;3.13;;;5.30;99.90;;;;;;5033020;28;20060;-72
2023/03/15 05:07:46;;;;;;;11.05;3.10;;;5.20;99.90;;;;;;5032804;28;20514;-72
2023/03/15 05:10:11;;;;;;;11.52;2.58;;;5.10;99.90;;;;;;5032569;28;20073;-72
2023/03/15 05:12:37;;;;;;;7.95;2.38;;;5.10;99.90;;;;;;5032595;28;20090;-72
2023/03/15 05:15:03;;;;;;;14.32;3.10;;;5.40;99.90;;;;;;5032542;28;20036;-72
2023/03/15 05:17:29;;;;;;;8.55;2.63;;;5.10;99.90;;;;;;5033123;28;20025;-71
2023/03/15 05:19:55;;;;;;;10.25;2.78;;;5.10;99.90;;;;;;5032491;28;20033;-74
2023/03/15 05:22:24;;;;;;;12.02;3.28;;;5.10;99.90;;;;;;5031554;28;20034;-72
2023/03/15 05:24:52;;;;;;;7.60;2.65;;;5.20;99.90;;;;;;5032498;28;20336;-72
2023/03/15 05:27:18;;;;;;;14.93;3.22;;;5.30;99.90;;;;;;5031479;28;20025;-73
2023/03/15 05:29:45;;;;;;;8.93;3.30;;;5.10;99.90;;;;;;5032642;28;20519;-73
2023/03/15 05:32:10;;;;;;;6.18;2.92;;;5.10;99.90;;;;;;5032364;28;20037;-71
2023/03/15 05:34:36;;;;;;;5.65;2.40;;;5.30;99.90;;;;;;5032418;28;20029;-72
2023/03/15 05:37:02;;;;;;;6.68;3.03;;;5.30;99.90;;;;;;5032128;28;20030;-72
2023/03/15 05:39:28;;;;;;;6.88;2.58;;;5.30;99.90;;;;;;5031902;28;20037;-71
2023/03/15 05:41:54;;;;;;;5.45;2.60;;;5.50;99.90;;;;;;5032504;28;20021;-71
2023/03/15 05:44:21;;;;;;;6.95;2.60;;;5.30;99.90;;;;;;5031944;28;20361;-72
2023/03/15 05:46:47;;;;;;;3.78;2.08;;;5.40;99.90;;;;;;5032127;28;20045;-72
2023/03/15 05:49:13;;;;;;;5.03;2.97;;;5.40;99.90;;;;;;5031958;28;20418;-72
2023/03/15 05:51:38;;;;;;;12.30;3.05;;;5.30;99.90;;;;;;5030786;28;20099;-72
2023/03/15 05:54:04;;;;;;;7.10;3.30;;;5.30;99.90;;;;;;5031563;28;20083;-72
2023/03/15 05:56:29;;;;;;;7.38;3.05;;;5.50;99.90;;;;;;5031164;28;20029;-72
2023/03/15 05:58:55;;;;;;;8.63;2.90;;;5.50;99.90;;;;;;5030826;28;20071;-72
2023/03/15 06:01:21;;;;;;;5.43;2.75;;;5.50;99.90;;;;;;5032039;28;20100;-73
2023/03/15 06:03:46;;;;;;;7.55;2.80;;;5.60;99.90;;;;;;5031158;28;20041;-74
2023/03/15 06:06:12;;;;;;;6.47;3.30;;;5.50;99.90;;;;;;5032143;28;20018;-73
2023/03/15 06:08:37;;;;;;;8.02;3.60;;;5.30;99.90;;;;;;5032000;28;20039;-72
2023/03/15 06:11:03;;;;;;;8.95;3.78;;;5.30;99.90;;;;;;5031805;28;20030;-72
2023/03/15 06:13:29;;;;;;;10.45;3.60;;;5.40;99.90;;;;;;5030523;28;20033;-73
2023/03/15 06:15:54;;;;;;;13.23;3.40;;;5.40;99.90;;;;;;5028644;28;20048;-72
2023/03/15 06:18:20;;;;;;;7.50;3.05;;;5.40;99.90;;;;;;5039652;28;20045;-72
2023/03/15 06:20:46;;;;;;;7.70;3.25;;;5.50;99.90;;;;;;5030744;28;20099;-72
2023/03/15 06:23:11;;;;;;;12.35;3.22;;;5.50;99.90;;;;;;5031351;28;20070;-73
2023/03/15 06:25:37;;;;;;;10.18;3.03;;;5.50;99.90;;;;;;5031236;28;20121;-72
2023/03/15 06:28:03;;;;;;;6.22;2.90;;;5.60;99.90;;;;;;5030106;28;20037;-74
2023/03/15 06:30:28;;;;;;;12.25;2.95;;;5.70;99.90;;;;;;5029048;28;20034;-74
2023/03/15 06:32:55;;;;;;;9.40;3.55;;;5.60;99.90;;;;;;5031553;28;20051;-73
2023/03/15 06:35:21;;;;;;;13.05;3.65;;;5.70;99.90;;;;;;5030040;28;20065;-74
2023/03/15 06:37:47;;;;;;;8.82;3.05;;;5.80;99.90;;;;;;5030027;28;20124;-73
2023/03/15 06:40:13;;;;;;;6.75;3.10;;;5.70;99.90;;;;;;5030869;28;20125;-73
2023/03/15 06:42:40;;;;;;;9.40;3.20;;;5.80;99.90;;;;;;5031202;28;20034;-73
2023/03/15 06:45:08;;;;;;;6.55;3.10;;;5.80;99.90;;;;;;5030847;28;20086;-73
2023/03/15 06:47:34;;;;;;;;;;;5.80;99.90;;;;;;5030973;28;20022;-72
2023/03/15 06:50:00;;;;;;;9.95;2.92;;;5.70;99.90;;;;;;5029847;28;19920;-73
2023/03/15 06:52:25;;;;;;;7.35;3.33;;;5.90;99.90;;;;;;5030819;28;20167;-73
2023/03/15 06:54:51;;;;;;;12.10;3.40;;;6.00;99.90;;;;;;5030881;28;20069;-71
2023/03/15 06:57:17;;;;;;;6.13;3.10;;;6.00;99.90;;;;;;5030868;28;20448;-74
2023/03/15 06:59:42;;;;;;;15.98;3.50;;;5.80;99.90;;;;;;5031080;28;20451;-73
2023/03/15 07:02:14;;;;;;;8.15;3.40;;;5.70;99.90;;;;;;5029939;28;20021;-74
2023/03/15 07:04:40;;;;;;;8.98;3.42;;;5.60;99.90;;;;;;5029632;28;20026;-71
2023/03/15 07:07:06;;;;;;;10.57;3.40;;;5.80;99.90;;;;;;5030510;28;20039;-71
2023/03/15 07:09:32;;;;;;;7.78;3.30;;;6.00;99.90;;;;;;5030939;28;20029;-70
2023/03/15 07:11:57;;;;;;;10.48;3.30;;;6.10;99.90;;;;;;5031245;28;20439;-71
2023/03/15 07:14:23;;;;;;;8.45;3.67;;;6.10;99.90;;;;;;5029438;28;20068;-71
2023/03/15 07:16:49;;;;;;;6.30;2.55;;;6.20;99.90;;;;;;5028586;28;20025;-73
2023/03/15 07:19:15;;;;;;;12.15;3.13;;;6.30;99.90;;;;;;5030300;28;20060;-72
2023/03/15 07:21:40;;;;;;;11.57;3.38;;;6.20;99.90;;;;;;5030458;28;20038;-71
2023/03/15 07:24:06;;;;;;;7.82;2.95;;;6.20;99.90;;;;;;5030195;28;20029;-69
2023/03/15 07:26:32;;;;;;;12.98;3.90;;;6.10;99.90;;;;;;5030791;28;20014;-70
2023/03/15 07:28:58;;;;;;;7.82;3.40;;;6.00;99.90;;;;;;5030294;28;20030;-72
2023/03/15 07:31:23;;;;;;;5.60;3.13;;;6.20;99.90;;;;;;5030263;28;20033;-71
2023/03/15 07:33:49;;;;;;;12.52;2.83;;;6.20;99.90;;;;;;5030266;28;20045;-71
2023/03/15 07:36:15;;;;;;;8.63;2.95;;;6.30;99.90;;;;;;5028706;28;20025;-70
2023/03/15 07:38:41;;;;;;;14.68;3.60;;;6.40;99.70;;;;;;5030668;28;20153;-71
2023/03/15 07:41:07;;;;;;;6.32;2.47;;;6.40;99.40;;;;;;5033762;28;20080;-71
2023/03/15 07:43:33;;;;;;;7.22;2.42;;;6.50;99.40;;;;;;5035006;28;20029;-71
2023/03/15 07:46:00;;;;;;;8.10;2.75;;;6.50;99.40;;;;;;5030003;28;20037;-70
2023/03/15 07:48:28;;;;;;;7.00;2.60;;;6.60;98.90;;;;;;5030935;28;20029;-72
2023/03/15 07:50:54;;;;;;;9.73;2.63;;;6.50;98.90;;;;;;5030516;28;20025;-70
2023/03/15 07:53:20;;;;;;;13.52;2.50;;;6.50;98.50;;;;;;5029882;28;20034;-71
2023/03/15 07:55:47;;;;;;;4.97;2.28;;;6.40;98.40;;;;;;5029943;28;20053;-73
2023/03/15 07:58:13;;;;;;;4.93;2.38;;;6.50;98.10;;;;;;5029925;28;20091;-70
2023/03/15 08:00:39;;;;;;;4.65;2.20;;;6.60;98.10;;;;;;5030086;28;20029;-70
2023/03/15 08:03:06;;;;;;;11.48;3.00;;;6.80;98.20;;;;;;5028827;28;20026;-70
2023/03/15 08:05:32;;;;;;;9.50;2.85;;;6.80;97.70;;;;;;5029285;28;20403;-70
2023/03/15 08:07:59;;;;;;;7.53;2.40;;;6.70;98.40;;;;;;5029972;28;20109;-70
2023/03/15 08:10:25;;;;;;;6.68;2.50;;;6.80;98.00;;;;;;5030022;28;20026;-71
2023/03/15 08:12:50;;;;;;;11.95;3.25;;;6.80;98.10;;;;;;5030277;28;20092;-73
2023/03/15 08:15:17;;;;;;;10.25;2.20;;;6.90;97.90;;;;;;5030064;28;20033;-73
2023/03/15 08:17:43;;;;;;;9.27;2.47;;;6.80;97.80;;;;;;5030874;28;20080;-74
2023/03/15 08:20:10;;;;;;;5.72;2.38;;;6.70;97.90;;;;;;5030462;28;20042;-72
2023/03/15 08:22:37;;;;;;;8.20;2.17;;;6.70;97.70;;;;;;5029950;28;20349;-71
2023/03/15 08:25:04;;;;;;;9.98;2.45;;;7.00;97.80;;;;;;5029820;28;20272;-73
2023/03/15 08:27:30;;;;;;;5.32;2.28;;;7.20;97.50;;;;;;5031774;28;20029;-74
2023/03/15 08:29:56;;;;;;;8.32;2.05;;;7.20;97.20;;;;;;5033921;28;20367;-73
2023/03/15 08:32:21;;;;;;;6.75;2.00;;;7.30;96.90;;;;;;5033005;28;20060;-71
2023/03/15 08:34:47;;;;;;;4.40;2.22;;;6.90;97.20;;;;;;5033459;28;20483;-71
2023/03/15 08:37:13;;;;;;;6.25;2.30;;;7.20;97.40;;;;;;5033275;28;20041;-70
2023/03/15 08:39:39;;;;;;;7.07;2.47;;;7.20;97.30;;;;;;5033183;28;20060;-72
2023/03/15 08:42:05;;;;;;;6.38;2.38;;;7.30;97.00;;;;;;5032932;28;20105;-73
2023/03/15 08:44:31;;;;;;;6.47;2.45;;;7.50;96.90;;;;;;5033594;28;20029;-73
2023/03/15 08:46:57;;;;;;;7.45;2.42;;;7.70;96.70;;;;;;5033081;28;20057;-72
2023/03/15 08:49:24;;;;;;;4.88;2.42;;;7.90;96.50;;;;;;5033213;28;20068;-72
2023/03/15 08:51:49;;;;;;;10.73;2.47;;;8.00;96.10;;;;;;5033198;28;20030;-72
2023/03/15 08:54:15;;;;;;;11.85;2.78;;;8.20;96.30;;;;;;5033192;28;20032;-73
2023/03/15 08:56:41;;;;;;;11.70;2.50;;;8.20;95.80;;;;;;5033779;28;20084;-73
2023/03/15 08:59:08;;;;;;;8.38;2.45;;;8.30;95.30;;;;;;5032978;28;20025;-73
2023/03/15 09:01:34;;;;;;;9.20;2.10;;;8.70;95.60;;;;;;5032992;28;20033;-73
2023/03/15 09:04:00;;;;;;;6.57;2.00;;;8.90;95.10;;;;;;5033246;28;20034;-71
2023/03/15 09:06:27;;;;;;;9.25;2.15;;;9.00;94.50;;;;;;5032985;28;20091;-71
2023/03/15 09:08:59;;;;;;;6.32;1.88;;;9.70;94.00;;;;;;5033151;28;20028;-71
2023/03/15 09:11:25;;;;;;;7.03;1.63;;;10.60;92.20;;;;;;5032280;28;20514;-71
2023/03/15 09:13:50;;;;;;;9.30;2.42;;;10.50;91.70;;;;;;5032841;28;20041;-70
2023/03/15 09:16:16;;;;;;;9.43;2.22;;;10.50;91.90;;;;;;5032541;28;20037;-71
2023/03/15 09:18:42;;;;;;;8.95;1.35;;;9.80;92.10;;;;;;5032647;28;20037;-70
2023/03/15 09:21:08;;;;;;;9.50;1.60;;;9.90;92.20;;;;;;5032447;28;20028;-71
2023/03/15 09:23:34;;;;;;;7.43;2.05;;;10.10;91.50;;;;;;5033220;28;20021;-71
2023/03/15 09:26:00;;;;;;;7.75;1.92;;;9.50;92.00;;;;;;5032604;28;20359;-73
2023/03/15 09:28:26;;;;;;;10.35;2.25;;;8.80;92.60;;;;;;5032585;28;20029;-72
2023/03/15 09:30:52;;;;;;;8.18;1.77;;;8.90;92.80;;;;;;5032151;28;20045;-70
2023/03/15 09:33:21;;;;;;;11.68;1.88;;;9.50;92.80;;;;;;5032305;28;20108;-72
2023/03/15 09:35:50;;;;;;;8.32;1.60;;;9.80;92.70;;;;;;5033086;28;20440;-70
2023/03/15 09:38:16;;;;;;;11.27;1.60;;;10.50;91.20;;;;;;5030757;28;20037;-72
2023/03/15 09:40:44;;;;;;;8.50;2.08;;;10.80;90.60;;;;;;5032425;28;20025;-73
2023/03/15 09:43:31;;;;;;;7.97;1.23;;;11.50;88.20;;;;;;5032457;28;20033;-72
2023/03/15 09:46:21;;;;;;;13.25;2.55;;;13.40;87.40;;;;;;5032630;28;20461;-74
2023/03/15 09:49:10;;;;;;;7.18;1.38;;;13.80;84.10;;;;;;5032455;28;20053;-75
2023/03/15 09:51:53;;;;;;;13.23;5.13;;;15.10;79.80;;;;;;5030839;28;20479;-75
2023/03/15 09:54:36;;;;;;;9.25;1.27;;;15.20;74.20;;;;;;5032111;28;20125;-73
2023/03/15 09:57:22;;;;;;;8.40;1.42;;;16.20;73.80;;;;;;5032149;28;20380;-73
2023/03/15 09:59:52;;;;;;;8.77;1.30;;;16.20;77.70;;;;;;5032431;28;20103;-73
2023/03/15 10:02:28;;;;;;;7.28;1.27;;;16.60;69.10;;;;;;5031871;28;20072;-74
2023/03/15 10:05:05;;;;;;;2.47;0.70;;;17.30;64.30;;;;;;5036819;28;20040;-74
2023/03/15 10:07:31;;;;;;;4.38;1.00;;;17.10;64.20;;;;;;5031869;28;20422;-73
2023/03/15 10:09:57;;;;;;;7.30;0.98;;;18.80;63.70;;;;;;5030687;28;20029;-74
2023/03/15 10:12:41;;;;;;;4.57;1.42;;;17.90;57.00;;;;;;5030560;28;20025;-75
2023/03/15 10:15:38;;;;;;;6.35;1.55;;;18.30;58.50;;;;;;5031566;28;20022;-74
2023/03/15 10:25:15;;;;;;;6.78;1.17;;;17.90;53.90;;;;;;5018512;28;20037;-75
2023/03/15 10:27:51;;;;;;;6.05;1.38;;;17.80;53.70;;;;;;5021980;28;20033;-73
2023/03/15 10:30:18;;;;;;;4.78;1.00;;;18.30;53.30;;;;;;5031475;28;20049;-73
2023/03/15 10:32:50;;;;;;;8.65;1.63;;;19.60;52.40;;;;;;5032210;28;20116;-75
2023/03/15 10:35:18;;;;;;;7.25;1.42;;;20.50;56.60;;;;;;5031508;28;20517;-77
2023/03/15 10:37:44;;;;;;;5.43;1.13;;;20.40;50.40;;;;;;5032109;28;20040;-72
2023/03/15 10:40:15;;;;;;;7.13;1.20;;;19.20;49.80;;;;;;5031268;28;20064;-72
2023/03/15 10:42:45;;;;;;;10.10;1.77;;;18.70;48.60;;;;;;5031448;28;20041;-74
2023/03/15 10:45:22;;;;;;;4.57;1.20;;;19.80;51.80;;;;;;5031256;28;20087;-72
2023/03/15 10:47:49;;;;;;;5.80;1.20;;;20.20;47.60;;;;;;5031584;28;20160;-73
2023/03/15 10:50:32;;;;;;;6.78;1.42;;;19.80;48.20;;;;;;5030767;28;20041;-72
2023/03/15 10:53:07;;;;;;;6.57;1.30;;;17.50;47.40;;;;;;5031317;28;20486;-75
2023/03/15 10:55:37;;;;;;;3.35;1.48;;;16.90;47.90;;;;;;5030746;28;20118;-76
2023/03/15 10:58:26;;;;;;;6.43;1.27;;;16.60;49.60;;;;;;5030926;28;20034;-77
2023/03/15 11:01:06;;;;;;;5.68;1.10;;;16.50;50.40;;;;;;5031385;28;20029;-76
2023/03/15 11:03:32;;;;;;;5.13;1.33;;;16.40;49.00;;;;;;5030903;28;20053;-75
2023/03/15 11:05:59;;;;;;;9.07;2.05;;;15.70;49.40;;;;;;5029976;28;20275;-74
2023/03/15 11:08:37;;;;;;;5.78;1.10;;;16.50;49.80;;;;;;5030562;28;20025;-76
2023/03/15 11:11:03;;;;;;;;;;;17.60;50.20;;;;;;5031082;28;20105;-72
2023/03/15 11:13:34;;;;;;;9.07;1.08;;;17.00;47.30;;;;;;5030454;28;20335;-73
2023/03/15 11:16:08;;;;;;;7.95;1.80;;;16.50;48.40;;;;;;5030506;28;20026;-74
2023/03/15 11:18:45;;;;;;;6.18;1.17;;;15.80;49.40;;;;;;5029221;28;20112;-73
2023/03/15 11:21:13;;;;;;;5.53;1.15;;;16.50;49.40;;;;;;5030472;28;20475;-69
2023/03/15 11:23:49;;;;;;;4.25;0.98;;;17.80;49.30;;;;;;5030914;28;20355;-70
2023/03/15 11:26:21;;;;;;;9.57;1.60;;;18.20;48.80;;;;;;5030429;28;20391;-70
2023/03/15 11:29:16;;;;;;;14.70;4.45;;;17.00;48.10;;;;;;5030597;28;20065;-70
2023/03/15 11:31:42;;;;;;;4.13;1.15;;;15.40;48.00;;;;;;5027833;28;20049;-71
2023/03/15 11:34:45;;;;;;;5.97;1.10;;;16.70;48.50;;;;;;5030376;28;20345;-74
2023/03/15 11:37:51;;;;;;;5.35;1.23;;;16.60;47.10;;;;;;5029427;28;20026;-74
2023/03/15 11:40:31;;;;;;;7.78;1.30;;;16.00;45.80;;;;;;5015019;28;20049;-74
2023/03/15 11:42:59;;;;;;;6.90;1.10;;;17.10;45.90;;;;;;5029352;28;20060;-73
2023/03/15 11:45:40;;;;;;;6.13;1.10;;;18.20;43.30;;;;;;5029034;28;20053;-71
2023/03/15 11:48:30;;;;;;;6.10;1.10;;;17.50;43.90;;;;;;5030185;28;20053;-71
2023/03/15 11:50:58;;;;;;;5.32;1.35;;;16.80;45.90;;;;;;5030829;28;20164;-71
2023/03/15 11:53:31;;;;;;;9.82;2.10;;;17.50;48.10;;;;;;5030284;28;20399;-72
2023/03/15 11:56:22;;;;;;;11.65;3.55;;;16.80;47.70;;;;;;5030086;28;20026;-70
2023/03/15 11:59:05;;;;;;;10.63;1.55;;;16.80;48.30;;;;;;5030009;28;20057;-72
2023/03/15 12:01:34;;;;;;;4.88;1.13;;;16.00;47.90;;;;;;5030742;28;20116;-71
2023/03/15 12:04:23;;;;;;;7.25;1.48;;;15.90;49.50;;;;;;5033016;28;20041;-71
2023/03/15 12:06:53;;;;;;;6.78;1.23;;;15.50;50.80;;;;;;5030393;28;20029;-71
2023/03/15 12:09:31;;;;;;;6.43;1.13;;;15.50;47.30;;;;;;5033408;28;20527;-73
2023/03/15 12:11:59;;;;;;;4.63;0.90;;;15.00;46.70;;;;;;5034479;28;20030;-73
2023/03/15 12:14:31;;;;;;;5.85;0.93;;;15.10;46.90;;;;;;5034824;28;20125;-73
2023/03/15 12:17:27;;;;;;;4.68;1.33;;;14.50;45.70;;;;;;5033494;28;20030;-72
2023/03/15 12:20:37;;;;;;;4.55;1.23;;;14.10;46.80;;;;;;5033924;28;20026;-70
2023/03/15 12:23:17;;;;;;;9.05;1.30;;;13.80;49.00;;;;;;5034054;28;20033;-71
2023/03/15 12:26:23;;;;;;;4.30;1.13;;;13.30;49.50;;;;;;5033888;28;20033;-71
2023/03/15 12:29:03;;;;;;;8.32;1.15;;;13.00;50.40;;;;;;5011377;28;20030;-71
2023/03/15 12:31:43;;;;;;;3.50;1.02;;;12.20;51.50;;;;;;5031858;28;20539;-71
2023/03/15 12:34:21;;;;;;;6.72;1.55;;;11.80;52.80;;;;;;5033647;28;20038;-70
2023/03/15 12:36:52;;;;;;;5.78;1.20;;;11.90;53.20;;;;;;5033347;28;20483;-71
2023/03/15 12:39:19;;;;;;;3.47;0.77;;;12.10;54.70;;;;;;5033225;28;20152;-71
2023/03/15 12:41:50;;;;;;;4.17;1.33;;;11.60;59.30;;;;;;5033751;28;20025;-71
2023/03/15 12:44:54;;;;;;;2.72;0.70;;;10.80;62.90;;;;;;5033320;28;20263;-71
2023/03/15 12:47:20;;;;;;;2.10;0.63;;;11.00;64.70;;;;;;5033333;28;20025;-72
2023/03/15 12:49:46;;;;;;;1.98;0.55;;;10.90;66.80;;;;;;5033152;28;20029;-71
2023/03/15 12:52:14;;;;;;;3.67;0.80;;;10.60;68.20;;;;;;5032389;28;20098;-72
2023/03/15 12:54:52;;;;;;;3.20;0.60;;;10.70;69.90;;;;;;5033398;28;20034;-70
2023/03/15 12:57:25;;;;;;;1.05;0.50;;;10.80;71.80;;;;;;5034642;28;20033;-71
2023/03/15 12:59:59;;;;;;;0.43;0.30;;;10.00;77.30;;;;;;5033635;28;20028;-72
2023/03/15 13:02:32;;;;;;;1.95;0.57;;;10.30;79.40;;;;;;5032962;28;20095;-73
2023/03/15 13:05:27;;;;;;;1.58;0.55;;;9.90;84.70;;;;;;5032989;28;20387;-69
2023/03/15 13:08:22;;;;;;;1.70;0.60;;;9.40;89.80;;;;;;5031777;28;20120;-70
2023/03/15 13:11:24;;;;;;;1.90;0.55;;;8.50;91.60;;;;;;5023066;28;20029;-71
2023/03/15 13:14:03;;;;;;;1.25;0.52;;;8.60;92.00;;;;;;5031867;28;20068;-72